createdAt,value
2022-09-07T00:00:55.529Z,98714.84
2022-09-07T00:03:23.400Z,98718.19
2022-09-07T00:05:52.077Z,98712.00
2022-09-07T00:08:22.344Z,98706.06
2022-09-07T00:10:59.827Z,98709.53
2022-09-07T00:13:30.376Z,98704.41
2022-09-07T00:15:58.953Z,98699.28
2022-09-07T00:18:26.520Z,98703.38
2022-09-07T00:21:06.261Z,98714.91
2022-09-07T00:23:35.947Z,98708.72
2022-09-07T00:26:06.100Z,98707.06
2022-09-07T00:28:34.069Z,98705.44
2022-09-07T00:31:01.876Z,98704.84
2022-09-07T00:33:30.418Z,98696.81
2022-09-07T00:35:58.698Z,98697.25
2022-09-07T00:38:26.675Z,98702.59
2022-09-07T00:40:54.201Z,98699.69
2022-09-07T00:43:37.759Z,98705.28
2022-09-07T00:46:07.870Z,98705.28
2022-09-07T00:48:57.440Z,98707.97
2022-09-07T00:51:33.796Z,98717.81
2022-09-07T00:54:07.481Z,98713.31
2022-09-07T00:56:38.546Z,98716.00
2022-09-07T00:59:07.241Z,98719.06
2022-09-07T01:01:35.273Z,98723.22
2022-09-07T01:04:03.660Z,98725.91
2022-09-07T01:06:34.654Z,98717.03
2022-09-07T01:09:10.185Z,98714.81
2022-09-07T01:11:38.989Z,98714.56
2022-09-07T01:14:11.642Z,98715.81
2022-09-07T01:16:42.148Z,98720.38
2022-09-07T01:19:39.964Z,98715.22
2022-09-07T01:22:37.262Z,98714.19
2022-09-07T01:25:27.514Z,98717.09
2022-09-07T01:28:20.825Z,98718.72
2022-09-07T01:30:56.063Z,98714.41
2022-09-07T01:33:41.920Z,98714.19
2022-09-07T01:36:34.936Z,98712.53
2022-09-07T01:39:05.502Z,98703.69
2022-09-07T01:41:50.754Z,98701.84
2022-09-07T01:44:24.959Z,98702.66
2022-09-07T01:47:01.280Z,98708.00
2022-09-07T01:49:44.963Z,98703.09
2022-09-07T01:52:34.257Z,98702.28
2022-09-07T01:55:05.321Z,98705.75
2022-09-07T01:57:43.737Z,98700.41
2022-09-07T02:00:20.964Z,98698.78
2022-09-07T02:02:48.421Z,98701.47
2022-09-07T02:05:27.585Z,98696.91
2022-09-07T02:08:04.778Z,98693.84
2022-09-07T02:10:41.686Z,98687.88
2022-09-07T02:13:20.865Z,98686.44
2022-09-07T02:16:00.299Z,98671.84
2022-09-07T02:18:37.964Z,98677.22
2022-09-07T02:21:09.039Z,98677.66
2022-09-07T02:23:48.998Z,98673.56
2022-09-07T02:26:22.286Z,98680.59
2022-09-07T02:28:49.966Z,98681.59
2022-09-07T02:31:17.513Z,98681.38
2022-09-07T02:33:45.148Z,98681.19
2022-09-07T02:36:15.926Z,98675.59
2022-09-07T02:38:43.988Z,98669.47
2022-09-07T02:41:46.858Z,98668.44
2022-09-07T02:44:19.433Z,98661.84
2022-09-07T02:47:12.478Z,98660.00
2022-09-07T02:50:04.417Z,98666.75
2022-09-07T02:52:40.745Z,98661.66
2022-09-07T02:55:11.138Z,98664.09
2022-09-07T02:58:05.232Z,98655.84
2022-09-07T03:00:40.486Z,98648.47
2022-09-07T03:03:31.210Z,98657.09
2022-09-07T03:06:07.801Z,98668.63
2022-09-07T03:08:47.034Z,98664.91
2022-09-07T03:11:15.312Z,98670.50
2022-09-07T03:13:42.962Z,98671.09
2022-09-07T03:16:17.186Z,98674.78
2022-09-07T03:18:44.826Z,98672.34
2022-09-07T03:21:12.386Z,98672.34
2022-09-07T03:23:40.850Z,98671.53
2022-09-07T03:26:23.035Z,98672.56
2022-09-07T03:28:50.494Z,98670.31
2022-09-07T03:31:18.204Z,98670.75
2022-09-07T03:33:46.365Z,98668.28
2022-09-07T03:36:13.729Z,98668.28
2022-09-07T03:38:41.477Z,98665.81
2022-09-07T03:41:08.823Z,98666.88
2022-09-07T03:43:36.362Z,98665.25
2022-09-07T03:46:06.076Z,98666.47
2022-09-07T03:48:35.041Z,98656.59
2022-09-07T03:51:08.293Z,98664.22
2022-09-07T03:53:38.864Z,98662.19
2022-09-07T03:56:11.016Z,98661.75
2022-09-07T03:58:39.408Z,98665.06
2022-09-07T04:01:12.216Z,98661.78
2022-09-07T04:03:40.006Z,98649.84
2022-09-07T04:06:07.537Z,98651.09
2022-09-07T04:08:36.610Z,98656.03
2022-09-07T04:11:06.176Z,98665.50
2022-09-07T04:13:36.184Z,98658.09
2022-09-07T04:16:21.953Z,98663.44
2022-09-07T04:18:50.452Z,98664.88
2022-09-07T04:21:18.363Z,98674.50
2022-09-07T04:23:45.859Z,98673.28
2022-09-07T04:26:25.557Z,98672.88
2022-09-07T04:28:54.422Z,98661.16
2022-09-07T04:31:23.531Z,98655.59
2022-09-07T04:33:52.004Z,98662.38
2022-09-07T04:36:20.500Z,98657.03
2022-09-07T04:38:54.775Z,98658.06
2022-09-07T04:41:23.034Z,98659.69
2022-09-07T04:43:59.957Z,98664.03
2022-09-07T04:46:33.605Z,98672.06
2022-09-07T04:49:04.303Z,98668.34
2022-09-07T04:51:32.634Z,98678.03
2022-09-07T04:54:02.789Z,98676.97
2022-09-07T04:56:31.805Z,98681.50
2022-09-07T04:59:01.105Z,98679.03
2022-09-07T05:01:29.157Z,98679.47
2022-09-07T05:03:56.892Z,98670.81
2022-09-07T05:06:24.351Z,98675.56
2022-09-07T05:08:53.771Z,98674.94
2022-09-07T05:11:28.397Z,98677.41
2022-09-07T05:14:01.399Z,98686.03
2022-09-07T05:16:30.182Z,98678.88
2022-09-07T05:18:59.966Z,98679.06
2022-09-07T05:21:29.871Z,98683.19
2022-09-07T05:23:59.888Z,98670.84
2022-09-07T05:26:30.298Z,98682.16
2022-09-07T05:31:50.011Z,98680.69
2022-09-07T05:34:34.747Z,98682.75
2022-09-07T05:37:02.669Z,98691.19
2022-09-07T05:39:31.201Z,98692.63
2022-09-07T05:41:58.645Z,98696.34
2022-09-07T05:47:09.684Z,98691.00
2022-09-07T05:49:37.562Z,98694.50
2022-09-07T05:52:05.004Z,98687.28
2022-09-07T05:54:32.615Z,98680.94
2022-09-07T05:57:00.174Z,98682.78
2022-09-07T05:59:27.542Z,98685.44
2022-09-07T06:01:55.145Z,98682.56
2022-09-07T06:04:22.835Z,98675.16
2022-09-07T06:07:17.716Z,98678.63
2022-09-07T06:12:26.431Z,98680.47
2022-09-07T06:14:54.018Z,98676.19
2022-09-07T06:17:21.462Z,98680.91
2022-09-07T06:19:48.895Z,98670.81
2022-09-07T06:22:16.531Z,98671.03
2022-09-07T06:24:43.968Z,98673.91
2022-09-07T06:27:11.810Z,98672.88
2022-09-07T06:29:40.107Z,98675.75
2022-09-07T06:34:55.209Z,98673.47
2022-09-07T06:37:22.574Z,98671.63
2022-09-07T06:39:50.648Z,98669.56
2022-09-07T06:42:18.316Z,98671.00
2022-09-07T06:44:45.789Z,98670.78
2022-09-07T06:47:14.246Z,98668.13
2022-09-07T06:49:42.349Z,98666.66
2022-09-07T06:52:09.778Z,98669.94
2022-09-07T06:57:25.009Z,98659.25
2022-09-07T06:59:52.449Z,98660.06
2022-09-07T07:02:19.847Z,98652.66
2022-09-07T07:04:47.434Z,98651.59
2022-09-07T07:07:16.023Z,98655.94
2022-09-07T07:09:44.840Z,98650.97
2022-09-07T07:12:12.424Z,98649.34
2022-09-07T07:14:44.724Z,98652.63
2022-09-07T07:17:13.329Z,98650.97
2022-09-07T07:19:41.031Z,98646.47
2022-09-07T07:22:23.926Z,98650.97
2022-09-07T07:24:56.055Z,98656.94
2022-09-07T07:27:23.598Z,98655.91
2022-09-07T07:29:52.552Z,98652.63
2022-09-07T07:32:20.216Z,98657.16
2022-09-07T07:34:47.602Z,98657.97
2022-09-07T07:37:16.022Z,98662.28
2022-09-07T07:42:32.198Z,98675.88
2022-09-07T07:47:51.424Z,98672.16
2022-09-07T07:50:34.892Z,98668.66
2022-09-07T07:55:50.686Z,98660.00
2022-09-07T07:58:18.349Z,98659.19
2022-09-07T08:00:55.395Z,98661.22
2022-09-07T08:03:25.318Z,98657.47
2022-09-07T08:05:53.875Z,98653.59
2022-09-07T08:08:23.067Z,98662.44
2022-09-07T08:10:50.742Z,98662.44
2022-09-07T08:13:19.200Z,98659.09
2022-09-07T08:15:47.013Z,98655.38
2022-09-07T08:18:16.581Z,98649.38
2022-09-07T08:20:43.954Z,98649.97
2022-09-07T08:23:11.505Z,98650.34
2022-09-07T08:25:39.166Z,98653.63
2022-09-07T08:28:06.802Z,98649.53
2022-09-07T08:30:38.546Z,98647.03
2022-09-07T08:33:06.218Z,98640.03
2022-09-07T08:35:33.478Z,98639.59
2022-09-07T08:38:00.831Z,98646.00
2022-09-07T08:40:31.110Z,98638.59
2022-09-07T08:43:04.148Z,98633.84
2022-09-07T08:45:54.416Z,98627.00
2022-09-07T08:48:30.960Z,98632.94
2022-09-07T08:51:09.466Z,98627.53
2022-09-07T08:53:45.672Z,98618.44
2022-09-07T08:56:21.857Z,98623.97
2022-09-07T08:58:53.149Z,98626.66
2022-09-07T09:01:31.368Z,98641.28
2022-09-07T09:07:24.763Z,98624.13
2022-09-07T09:10:09.030Z,98630.91
2022-09-07T09:13:06.522Z,98631.13
2022-09-07T09:16:05.894Z,98634.41
2022-09-07T09:18:46.865Z,98631.50
2022-09-07T09:21:17.439Z,98633.53
2022-09-07T09:23:48.785Z,98625.09
2022-09-07T09:26:20.498Z,98619.50
2022-09-07T09:28:48.026Z,98619.44
2022-09-07T09:31:31.795Z,98617.63
2022-09-07T09:34:05.085Z,98619.91
2022-09-07T09:36:44.714Z,98614.94
2022-09-07T09:39:27.383Z,98611.59
2022-09-07T09:41:58.314Z,98609.50
2022-09-07T09:44:33.664Z,98610.69
2022-09-07T09:49:51.398Z,98611.06
2022-09-07T09:52:30.503Z,98607.13
2022-09-07T09:55:23.577Z,98601.94
2022-09-07T10:04:01.124Z,98596.25
2022-09-07T10:06:32.213Z,98594.41
2022-09-07T10:09:02.287Z,98592.34
2022-09-07T10:14:44.251Z,98588.38
2022-09-07T10:17:30.101Z,98583.63
2022-09-07T10:20:01.603Z,98596.78
2022-09-07T10:22:33.364Z,98588.53
2022-09-07T10:25:02.211Z,98589.94
2022-09-07T10:27:38.543Z,98588.09
2022-09-07T10:30:16.661Z,98590.72
2022-09-07T10:33:04.398Z,98592.94
2022-09-07T10:35:37.593Z,98588.38
2022-09-07T10:38:25.048Z,98580.94
2022-09-07T10:41:04.053Z,98586.88
2022-09-07T10:43:45.142Z,98582.34
2022-09-07T10:46:57.282Z,98574.66
2022-09-07T10:49:28.214Z,98580.63
2022-09-07T10:52:21.275Z,98570.50
2022-09-07T10:54:55.263Z,98573.78
2022-09-07T10:57:54.482Z,98572.53
2022-09-07T11:00:23.340Z,98570.44
2022-09-07T11:05:57.334Z,98565.66
2022-09-07T11:09:15.164Z,98565.88
2022-09-07T11:14:21.740Z,98568.72
2022-09-07T11:16:55.622Z,98562.09
2022-09-07T11:19:38.185Z,98559.16
2022-09-07T11:22:11.276Z,98564.09
2022-09-07T11:27:58.588Z,98561.53
2022-09-07T11:30:42.606Z,98558.03
2022-09-07T11:33:27.375Z,98553.03
2022-09-07T11:36:15.183Z,98556.88
2022-09-07T11:38:51.278Z,98552.09
2022-09-07T11:41:22.061Z,98552.69
2022-09-07T11:44:16.954Z,98553.28
2022-09-07T11:46:50.211Z,98545.25
2022-09-07T11:49:21.526Z,98539.44
2022-09-07T11:51:57.333Z,98534.66
2022-09-07T11:54:41.818Z,98535.00
2022-09-07T11:57:38.628Z,98537.69
2022-09-07T12:00:21.392Z,98540.16
2022-09-07T12:03:23.592Z,98537.69
2022-09-07T12:06:27.188Z,98536.41
2022-09-07T12:09:19.244Z,98531.41
2022-09-07T12:12:06.618Z,98528.03
2022-09-07T12:14:58.178Z,98525.59
2022-09-07T12:17:40.596Z,98519.75
2022-09-07T12:20:24.184Z,98521.16
2022-09-07T12:23:17.530Z,98522.53
2022-09-07T12:25:47.349Z,98513.22
2022-09-07T12:28:23.523Z,98513.78
2022-09-07T12:31:11.888Z,98517.06
2022-09-07T12:33:40.477Z,98514.16
2022-09-07T12:36:26.300Z,98518.25
2022-09-07T12:39:19.430Z,98525.03
2022-09-07T12:42:31.455Z,98523.19
2022-09-07T12:44:38.121Z,98519.66
2022-09-07T12:47:12.312Z,98510.34
2022-09-07T12:49:45.811Z,98517.53
2022-09-07T12:52:49.693Z,98508.47
2022-09-07T12:56:15.602Z,98510.69
2022-09-07T12:58:38.411Z,98501.34
2022-09-07T13:01:36.793Z,98497.63
2022-09-07T13:04:29.234Z,98493.88
2022-09-07T13:07:30.682Z,98485.38
2022-09-07T13:10:04.378Z,98489.94
2022-09-07T13:15:41.208Z,98487.59
2022-09-07T13:18:29.086Z,98486.41
2022-09-07T13:21:08.660Z,98482.44
2022-09-07T13:23:42.437Z,98480.34
2022-09-07T13:26:13.228Z,98478.00
2022-09-07T13:28:56.616Z,98479.41
2022-09-07T13:31:33.418Z,98481.88
2022-09-07T13:34:00.871Z,98471.13
2022-09-07T13:36:47.677Z,98472.88
2022-09-07T13:39:19.885Z,98468.41
2022-09-07T13:41:54.392Z,98468.41
2022-09-07T13:44:33.610Z,98472.53
2022-09-07T13:47:10.329Z,98470.97
2022-09-07T13:49:56.047Z,98468.41
2022-09-07T13:52:40.724Z,98479.75
2022-09-07T13:55:45.584Z,98466.41
2022-09-07T13:58:50.531Z,98464.88
2022-09-07T14:01:45.017Z,98470.03
2022-09-07T14:04:23.318Z,98467.91
2022-09-07T14:06:50.958Z,98469.31
2022-09-07T14:09:21.915Z,98459.59
2022-09-07T14:11:52.418Z,98457.97
2022-09-07T14:14:21.221Z,98457.97
2022-09-07T14:17:01.863Z,98461.25
2022-09-07T14:19:42.439Z,98466.50
2022-09-07T14:22:16.183Z,98463.00
2022-09-07T14:24:49.502Z,98461.69
2022-09-07T14:27:33.073Z,98454.56
2022-09-07T14:30:19.067Z,98455.50
2022-09-07T14:32:59.889Z,98451.53
2022-09-07T14:35:33.489Z,98448.56
2022-09-07T14:39:04.105Z,98444.38
2022-09-07T14:41:11.041Z,98440.66
2022-09-07T14:43:50.927Z,98436.91
2022-09-07T14:46:28.126Z,98440.66
2022-09-07T14:49:01.639Z,98436.31
2022-09-07T14:51:36.592Z,98439.00
2022-09-07T14:54:07.175Z,98438.19
2022-09-07T14:56:37.646Z,98434.09
2022-09-07T14:59:30.940Z,98434.69
2022-09-07T15:02:28.485Z,98431.50
2022-09-07T15:05:14.452Z,98418.88
2022-09-07T15:07:54.569Z,98422.88
2022-09-07T15:10:23.146Z,98421.25
2022-09-07T15:12:54.507Z,98419.59
2022-09-07T15:15:29.042Z,98421.44
2022-09-07T15:18:04.600Z,98423.94
2022-09-07T15:20:41.478Z,98424.53
2022-09-07T15:23:09.586Z,98420.75
2022-09-07T15:25:39.264Z,98420.75
2022-09-07T15:29:08.152Z,98421.34
2022-09-07T15:33:52.733Z,98421.34
2022-09-07T15:36:20.497Z,98411.97
2022-09-07T15:39:03.608Z,98417.84
2022-09-07T15:41:31.551Z,98419.47
2022-09-07T15:43:59.404Z,98418.88
2022-09-07T15:46:27.156Z,98417.03
2022-09-07T15:48:56.072Z,98413.75
2022-09-07T15:54:14.516Z,98418.34
2022-09-07T15:56:44.422Z,98407.00
2022-09-07T15:59:31.199Z,98401.81
2022-09-07T16:01:59.026Z,98405.53
2022-09-07T16:04:26.954Z,98407.66
2022-09-07T16:06:55.735Z,98413.03
2022-09-07T16:09:23.103Z,98400.66
2022-09-07T16:11:50.901Z,98401.16
2022-09-07T16:14:19.244Z,98397.88
2022-09-07T16:19:36.008Z,98397.31
2022-09-07T16:22:03.893Z,98399.41
2022-09-07T16:24:31.379Z,98395.06
2022-09-07T16:26:58.996Z,98389.69
2022-09-07T16:29:26.395Z,98395.06
2022-09-07T16:34:41.305Z,98394.50
2022-09-07T16:37:08.619Z,98397.19
2022-09-07T16:39:36.041Z,98399.88
2022-09-07T16:42:03.827Z,98395.06
2022-09-07T16:44:31.325Z,98401.28
2022-09-07T16:46:59.788Z,98399.66
2022-09-07T16:49:28.751Z,98389.69
2022-09-07T16:51:56.555Z,98391.34
2022-09-07T16:54:24.084Z,98397.75
2022-09-07T16:56:52.967Z,98404.22
2022-09-07T16:59:26.125Z,98405.81
2022-09-07T17:01:53.994Z,98409.59
2022-09-07T17:04:21.659Z,98406.31
2022-09-07T17:06:49.331Z,98401.16
2022-09-07T17:09:16.863Z,98408.44
2022-09-07T17:11:44.515Z,98411.13
2022-09-07T17:14:13.401Z,98414.84
2022-09-07T17:16:41.586Z,98417.53
2022-09-07T17:22:00.783Z,98425.59
2022-09-07T17:24:28.390Z,98421.28
2022-09-07T17:26:55.675Z,98427.72
2022-09-07T17:29:23.219Z,98433.09
2022-09-07T17:34:38.661Z,98434.63
2022-09-07T17:37:06.170Z,98436.75
2022-09-07T17:39:33.811Z,98439.66
2022-09-07T17:42:01.573Z,98424.34
2022-09-07T17:44:33.262Z,98427.84
2022-09-07T17:47:03.668Z,98430.28
2022-09-07T17:49:31.081Z,98431.94
2022-09-07T17:51:59.945Z,98423.88
2022-09-07T17:54:28.150Z,98412.56
2022-09-07T17:56:55.631Z,98410.09
2022-09-07T18:02:13.775Z,98418.16
2022-09-07T18:04:41.585Z,98422.94
2022-09-07T18:07:09.003Z,98420.50
2022-09-07T18:09:36.754Z,98426.69
2022-09-07T18:12:04.563Z,98416.75
2022-09-07T18:14:32.181Z,98417.81
2022-09-07T18:17:00.287Z,98419.09
2022-09-07T18:19:28.415Z,98411.25
2022-09-07T18:21:56.258Z,98411.25
2022-09-07T18:24:24.699Z,98415.00
2022-09-07T18:26:53.627Z,98418.78
2022-09-07T18:29:29.351Z,98418.19
2022-09-07T18:31:59.474Z,98416.53
2022-09-07T18:34:28.632Z,98424.59
2022-09-07T18:36:58.208Z,98422.97
2022-09-07T18:39:28.205Z,98427.78
2022-09-07T18:41:55.803Z,98425.09
2022-09-07T18:47:22.278Z,98410.25
2022-09-07T18:49:55.256Z,98416.44
2022-09-07T18:52:53.550Z,98417.25
2022-09-07T18:55:10.851Z,98405.69
2022-09-07T18:57:39.513Z,98404.53
2022-09-07T19:00:09.038Z,98408.25
2022-09-07T19:02:38.257Z,98404.19
2022-09-07T19:07:53.497Z,98405.47
2022-09-07T19:10:21.383Z,98394.72
2022-09-07T19:12:48.794Z,98400.91
2022-09-07T19:15:16.874Z,98413.53
2022-09-07T19:17:44.697Z,98417.88
2022-09-07T19:20:12.503Z,98418.91
2022-09-07T19:22:39.877Z,98415.41
2022-09-07T19:25:07.733Z,98420.78
2022-09-07T19:27:35.334Z,98415.19
2022-09-07T19:30:03.808Z,98414.59
2022-09-07T19:32:34.139Z,98405.47
2022-09-07T19:35:02.980Z,98407.56
2022-09-07T19:37:32.859Z,98405.69
2022-09-07T19:40:01.297Z,98412.94
2022-09-07T19:42:28.896Z,98416.69
2022-09-07T19:44:56.631Z,98415.06
2022-09-07T19:47:24.764Z,98415.97
2022-09-07T19:49:52.332Z,98414.13
2022-09-07T19:52:20.808Z,98414.38
2022-09-07T19:54:48.402Z,98413.28
2022-09-07T19:57:15.793Z,98415.41
2022-09-07T19:59:45.573Z,98406.75
2022-09-07T20:02:13.438Z,98403.03
2022-09-07T20:04:40.826Z,98405.72
2022-09-07T20:07:08.098Z,98404.06
2022-09-07T20:09:36.802Z,98398.13
2022-09-07T20:12:06.657Z,98399.16
2022-09-07T20:14:34.057Z,98394.25
2022-09-07T20:17:02.370Z,98395.06
2022-09-07T20:19:30.194Z,98400.44
2022-09-07T20:21:57.617Z,98395.28
2022-09-07T20:24:25.242Z,98394.25
2022-09-07T20:26:52.702Z,98388.06
2022-09-07T20:29:28.475Z,98405.00
2022-09-07T20:32:00.071Z,98411.41
2022-09-07T20:34:28.978Z,98408.72
2022-09-07T20:36:56.841Z,98404.41
2022-09-07T20:39:24.796Z,98404.41
2022-09-07T20:41:52.589Z,98401.72
2022-09-07T20:44:19.961Z,98398.47
2022-09-07T20:46:47.603Z,98398.47
2022-09-07T20:49:15.794Z,98402.19
2022-09-07T20:51:43.205Z,98402.66
2022-09-07T20:54:10.840Z,98391.13
2022-09-07T20:56:38.133Z,98390.75
2022-09-07T20:59:05.577Z,98394.84
2022-09-07T21:01:34.928Z,98397.28
2022-09-07T21:04:03.983Z,98391.91
2022-09-07T21:06:32.648Z,98392.72
2022-09-07T21:09:00.628Z,98393.53
2022-09-07T21:11:33.545Z,98397.28
2022-09-07T21:14:06.009Z,98394.59
2022-09-07T21:16:35.803Z,98393.53
2022-09-07T21:19:06.807Z,98392.72
2022-09-07T21:21:39.420Z,98395.66
2022-09-07T21:24:20.740Z,98390.28
2022-09-07T21:26:50.148Z,98379.53
2022-09-07T21:29:20.745Z,98383.28
2022-09-07T21:31:48.593Z,98375.81
2022-09-07T21:34:16.758Z,98384.91
2022-09-07T21:36:44.687Z,98376.25
2022-09-07T21:39:14.695Z,98381.63
2022-09-07T21:41:43.556Z,98382.47
2022-09-07T21:44:13.624Z,98381.63
2022-09-07T21:46:43.252Z,98374.66
2022-09-07T21:49:11.145Z,98373.03
2022-09-07T21:51:38.892Z,98377.56
2022-09-07T21:54:06.746Z,98373.03
2022-09-07T21:56:34.706Z,98377.56
2022-09-07T21:59:02.801Z,98375.13
2022-09-07T22:01:31.579Z,98375.34
2022-09-07T22:04:01.716Z,98368.91
2022-09-07T22:06:32.201Z,98363.22
2022-09-07T22:09:00.201Z,98357.84
2022-09-07T22:11:29.213Z,98357.84
2022-09-07T22:13:58.671Z,98354.56
2022-09-07T22:16:26.375Z,98361.22
2022-09-07T22:18:54.124Z,98363.09
2022-09-07T22:21:26.688Z,98362.84
2022-09-07T22:24:02.964Z,98367.41
2022-09-07T22:26:35.191Z,98368.72
2022-09-07T22:29:02.541Z,98361.69
2022-09-07T22:31:32.407Z,98366.25
2022-09-07T22:34:01.701Z,98360.06
2022-09-07T22:36:35.778Z,98357.59
2022-09-07T22:39:08.748Z,98359.69
2022-09-07T22:41:38.467Z,98356.44
2022-09-07T22:44:08.201Z,98353.16
2022-09-07T22:46:38.199Z,98351.53
2022-09-07T22:49:06.474Z,98346.19
2022-09-07T22:51:34.341Z,98347.00
2022-09-07T22:54:01.722Z,98352.13
2022-09-07T22:56:31.412Z,98347.78
2022-09-07T22:59:01.864Z,98341.50
2022-09-07T23:01:30.269Z,98346.28
2022-09-07T23:03:58.503Z,98339.28
2022-09-07T23:06:32.509Z,98337.88
2022-09-07T23:09:02.381Z,98334.63
2022-09-07T23:11:30.391Z,98339.41
2022-09-07T23:13:59.561Z,98337.78
2022-09-07T23:16:28.259Z,98327.25
2022-09-07T23:18:58.150Z,98323.19
2022-09-07T23:21:26.380Z,98327.16
2022-09-07T23:23:56.836Z,98332.16
2022-09-07T23:26:26.817Z,98333.44
2022-09-07T23:28:56.143Z,98328.88
2022-09-07T23:31:24.644Z,98322.94
2022-09-07T23:33:52.386Z,98328.06
2022-09-07T23:36:20.196Z,98314.88
2022-09-07T23:38:47.785Z,98318.63
2022-09-07T23:41:17.944Z,98314.06
2022-09-07T23:43:45.633Z,98313.00
2022-09-07T23:46:14.164Z,98313.84
2022-09-07T23:48:46.275Z,98319.44
2022-09-07T23:51:16.212Z,98310.81
2022-09-07T23:53:45.849Z,98302.97
2022-09-07T23:56:13.275Z,98310.44
2022-09-07T23:58:40.581Z,98315.38
